Time;durP1;ratioP1;P1;durP2;ratioP2;P2;SDS_P1;SDS_P2;PMS_P1;PMS_P2;Temp;Humidity;BMP_temperature;BMP_pressure;BME280_temperature;BME280_humidity;BME280_pressure;Samples;Min_cycle;Max_cycle;Signal;HPM_P1;HPM_P2
2021/01/06 00:01:00;;;;;;;17.77;11.40;;;;;;;6.67;65.18;99488.50;4351387;32;33753;-84
2021/01/06 00:03:28;;;;;;;22.27;12.13;;;;;;;6.67;65.21;99510.34;4335191;33;33709;-83
2021/01/06 00:05:59;;;;;;;20.77;12.20;;;;;;;6.47;65.96;99512.75;4322826;33;34416;-83
2021/01/06 00:08:26;;;;;;;24.10;13.32;;;;;;;6.36;66.71;99520.97;4310738;33;33540;-83
2021/01/06 00:10:57;;;;;;;20.20;12.32;;;;;;;6.28;66.82;99522.09;4344847;32;33444;-84
2021/01/06 00:13:26;;;;;;;17.73;11.23;;;;;;;6.60;65.85;99518.47;4326530;33;34092;-83
2021/01/06 00:15:54;;;;;;;21.92;11.88;;;;;;;6.41;66.02;99523.44;4339316;33;32253;-82
2021/01/06 00:18:23;;;;;;;18.52;11.35;;;;;;;6.83;64.67;99522.94;4357489;32;34542;-82
2021/01/06 00:20:51;;;;;;;17.30;11.10;;;;;;;6.76;64.79;99519.69;4330389;32;34857;-82
2021/01/06 00:23:19;;;;;;;17.58;10.57;;;;;;;6.72;64.70;99523.31;4331374;32;34430;-82
2021/01/06 00:25:48;;;;;;;18.62;11.80;;;;;;;6.49;65.59;99525.81;4326962;32;33975;-82
2021/01/06 00:28:17;;;;;;;19.00;11.82;;;;;;;6.63;65.19;99524.47;4339369;32;33150;-82
2021/01/06 00:30:55;;;;;;;18.42;11.48;;;;;;;6.75;64.61;99511.88;4347867;32;32288;-82
2021/01/06 00:33:26;;;;;;;18.77;11.12;;;;;;;6.62;65.35;99519.28;4331214;32;33521;-82
2021/01/06 00:36:00;;;;;;;18.15;10.98;;;;;;;6.25;66.05;99527.44;4331440;32;33331;-83
2021/01/06 00:38:30;;;;;;;20.15;10.70;;;;;;;6.75;64.62;99517.97;4352600;32;34642;-84
2021/01/06 00:40:58;;;;;;;18.83;11.18;;;;;;;6.28;65.75;99512.47;4341896;32;33673;-85
2021/01/06 00:43:26;;;;;;;22.17;12.05;;;;;;;6.47;64.79;99522.38;4331076;32;34542;-84
2021/01/06 00:45:55;;;;;;;21.45;12.68;;;;;;;6.33;64.94;99515.81;4355531;32;33303;-84
2021/01/06 00:48:22;;;;;;;26.95;13.93;;;;;;;6.35;64.95;99507.88;4329000;33;34384;-82
2021/01/06 00:50:51;;;;;;;22.50;13.65;;;;;;;5.99;66.37;99515.13;4328009;32;34713;-82
2021/01/06 00:53:25;;;;;;;23.62;13.90;;;;;;;5.97;66.52;99516.91;4354725;32;33726;-82
2021/01/06 00:55:54;;;;;;;21.33;13.05;;;;;;;6.00;66.39;99522.06;4341104;32;33413;-82
2021/01/06 00:58:22;;;;;;;26.12;14.07;;;;;;;6.01;66.94;99518.53;4354703;32;33023;-83
2021/01/06 01:00:52;;;;;;;25.85;13.93;;;;;;;6.22;66.00;99512.66;4328261;32;33835;-83
2021/01/06 01:03:22;;;;;;;28.40;14.20;;;;;;;6.08;66.01;99515.69;4341462;32;33679;-83
2021/01/06 01:05:50;;;;;;;22.33;12.68;;;;;;;6.02;66.52;99520.25;4329131;32;33259;-83
2021/01/06 01:08:18;;;;;;;22.77;13.57;;;;;;;6.18;65.88;99511.03;4328407;32;34469;-82
2021/01/06 01:10:50;;;;;;;25.52;14.95;;;;;;;6.27;65.82;99512.53;4337143;33;34758;-83
2021/01/06 01:13:18;;;;;;;26.30;14.27;;;;;;;6.13;65.80;99512.94;4342107;32;34547;-83
2021/01/06 01:15:47;;;;;;;25.65;14.35;;;;;;;6.02;66.25;99510.63;4325036;33;34195;-83
2021/01/06 01:18:19;;;;;;;25.70;13.45;;;;;;;5.76;67.10;99515.75;4326156;32;34592;-82
2021/01/06 01:20:49;;;;;;;27.37;13.98;;;;;;;6.18;65.82;99518.91;4330441;32;35003;-83
2021/01/06 01:23:18;;;;;;;23.45;12.60;;;;;;;6.12;66.36;99524.31;4329698;32;35242;-83
2021/01/06 01:25:46;;;;;;;22.80;13.00;;;;;;;6.14;66.55;99512.03;4324242;33;33833;-82
2021/01/06 01:28:15;;;;;;;24.02;12.65;;;;;;;6.17;66.24;99514.53;4345359;32;33958;-83
2021/01/06 01:30:43;;;;;;;26.08;14.45;;;;;;;5.97;67.10;99509.03;4358803;32;34868;-82
2021/01/06 01:33:15;;;;;;;24.42;13.35;;;;;;;5.48;68.78;99513.03;4342050;32;33220;-84
2021/01/06 01:35:42;;;;;;;19.87;11.57;;;;;;;5.94;67.21;99499.53;4336872;33;35195;-82
2021/01/06 01:38:22;;;;;;;19.25;11.10;;;;;;;5.93;66.94;99499.56;4340816;32;33439;-83
2021/01/06 01:40:57;;;;;;;20.83;11.82;;;;;;;5.73;67.73;99498.34;4346226;32;34701;-83
2021/01/06 01:43:25;;;;;;;18.75;10.93;;;;;;;5.76;67.29;99493.03;4359140;32;33344;-83
2021/01/06 01:45:52;;;;;;;24.63;12.45;;;;;;;5.55;67.79;99488.38;4338253;33;33351;-83
2021/01/06 01:48:26;;;;;;;20.33;12.02;;;;;;;5.31;68.92;99493.41;4336863;32;33353;-83
2021/01/06 01:50:55;;;;;;;18.48;10.23;;;;;;;5.73;67.43;99492.25;4347560;32;33732;-83
2021/01/06 01:53:37;;;;;;;21.62;12.05;;;;;;;5.48;68.47;99489.47;4323668;32;32775;-82
2021/01/06 01:56:05;;;;;;;21.23;11.40;;;;;;;5.37;68.62;99482.78;4341148;32;33706;-82
2021/01/06 01:58:33;;;;;;;20.58;11.20;;;;;;;5.74;67.71;99476.47;4331380;33;33298;-82
2021/01/06 02:01:02;;;;;;;17.98;9.45;;;;;;;5.78;67.09;99470.25;4329731;32;33585;-82
2021/01/06 02:03:51;;;;;;;20.52;10.98;;;;;;;5.48;68.09;99476.38;4347420;32;34139;-82
2021/01/06 02:06:36;;;;;;;20.60;11.02;;;;;;;5.16;69.04;99475.50;4334136;32;33055;-82
2021/01/06 02:09:05;;;;;;;18.83;10.77;;;;;;;5.41;68.63;99457.34;4341881;32;34369;-84
2021/01/06 02:11:42;;;;;;;19.62;9.50;;;;;;;5.30;68.91;99452.41;4337593;32;35337;-84
2021/01/06 02:14:18;;;;;;;20.42;11.20;;;;;;;5.65;67.86;99447.97;4330477;33;33804;-84
2021/01/06 02:17:08;;;;;;;21.15;10.80;;;;;;;5.59;67.97;99442.88;4346925;33;34425;-82
2021/01/06 02:19:44;;;;;;;20.40;11.07;;;;;;;5.78;67.33;99437.94;4343557;32;33839;-83
2021/01/06 02:22:18;;;;;;;22.87;10.93;;;;;;;5.35;68.96;99439.19;4326993;32;32868;-83
2021/01/06 02:24:47;;;;;;;20.55;10.52;;;;;;;5.66;67.84;99436.56;4343475;33;32848;-83
2021/01/06 02:27:15;;;;;;;19.75;12.00;;;;;;;5.29;69.28;99439.38;4346196;32;33338;-82
2021/01/06 02:29:43;;;;;;;19.12;11.05;;;;;;;5.53;68.20;99427.34;4324953;33;33655;-82
2021/01/06 02:32:11;;;;;;;23.12;10.65;;;;;;;5.87;66.92;99417.56;4328004;32;34331;-82
2021/01/06 02:34:40;;;;;;;21.55;10.68;;;;;;;5.62;67.59;99421.84;4350505;32;34142;-82
2021/01/06 02:37:08;;;;;;;24.87;10.73;;;;;;;5.67;67.31;99426.94;4351171;32;32808;-82
2021/01/06 02:39:36;;;;;;;21.12;10.45;;;;;;;5.39;68.37;99420.75;4335156;33;34245;-83
2021/01/06 02:42:04;;;;;;;22.27;11.77;;;;;;;5.30;68.38;99414.91;4323114;33;34795;-82
2021/01/06 02:44:31;;;;;;;25.35;12.00;;;;;;;5.04;69.64;99420.88;4328142;32;33624;-82
2021/01/06 02:46:59;;;;;;;22.50;12.63;;;;;;;4.79;70.33;99418.03;4335715;32;33997;-82
2021/01/06 02:49:26;;;;;;;22.73;11.98;;;;;;;5.07;69.71;99418.16;4345393;32;33617;-83
2021/01/06 02:52:22;;;;;;;22.37;11.15;;;;;;;5.04;69.71;99423.50;4339111;32;33480;-83
2021/01/06 02:54:50;;;;;;;23.62;11.73;;;;;;;4.88;70.32;99426.50;4345746;33;34265;-83
2021/01/06 02:57:18;;;;;;;19.65;10.73;;;;;;;5.39;68.77;99419.88;4333777;33;34025;-83
2021/01/06 02:59:47;;;;;;;20.77;10.43;;;;;;;5.49;68.56;99417.84;4334107;33;33620;-83
2021/01/06 03:02:19;;;;;;;20.45;10.98;;;;;;;5.47;68.46;99419.69;4327531;33;34680;-82
2021/01/06 03:04:49;;;;;;;;;;;;;;;5.24;69.47;99420.31;4341033;33;33786;-82
2021/01/06 03:07:18;;;;;;;18.65;9.93;;;;;;;5.16;70.12;99411.81;4333795;33;32817;-82
2021/01/06 03:09:45;;;;;;;21.77;10.30;;;;;;;4.93;71.58;99415.06;4346045;33;33510;-82
2021/01/06 03:12:18;;;;;;;21.00;10.30;;;;;;;4.74;72.05;99405.09;4338189;33;33771;-82
2021/01/06 03:14:46;;;;;;;24.40;10.52;;;;;;;4.51;73.19;99402.19;4333522;33;33599;-81
2021/01/06 03:17:14;;;;;;;18.58;10.60;;;;;;;5.07;71.46;99389.38;4317633;33;35071;-82
2021/01/06 03:19:46;;;;;;;20.45;10.35;;;;;;;5.25;70.41;99391.47;4321527;33;35383;-81
2021/01/06 03:22:17;;;;;;;20.20;10.13;;;;;;;5.16;71.45;99396.97;4323980;33;33439;-82
2021/01/06 03:24:48;;;;;;;22.30;11.52;;;;;;;4.90;72.18;99395.09;4340873;33;33671;-83
2021/01/06 03:27:15;;;;;;;21.10;10.50;;;;;;;5.09;70.93;99391.06;4326950;33;33996;-82
2021/01/06 03:29:44;;;;;;;22.83;10.70;;;;;;;5.26;70.35;99392.34;4320272;33;35183;-82
2021/01/06 03:32:20;;;;;;;26.00;12.02;;;;;;;4.98;71.43;99381.78;4334238;32;33605;-82
2021/01/06 03:34:54;;;;;;;25.23;11.63;;;;;;;5.26;70.73;99382.72;4337423;33;34625;-82
2021/01/06 03:38:05;;;;;;;22.15;11.15;;;;;;;4.99;71.95;99371.28;4339347;32;34506;-82
2021/01/06 03:40:37;;;;;;;21.60;10.32;;;;;;;4.95;72.19;99371.41;4353874;32;35687;-82
2021/01/06 03:43:07;;;;;;;23.38;11.55;;;;;;;5.30;70.63;99366.03;4355024;32;32755;-82
2021/01/06 03:45:37;;;;;;;20.70;10.55;;;;;;;5.17;71.17;99367.28;4344807;32;33264;-82
2021/01/06 03:48:25;;;;;;;21.27;10.25;;;;;;;4.65;73.09;99367.84;4345467;32;31440;-82
2021/01/06 03:50:58;;;;;;;17.73;10.50;;;;;;;4.95;72.00;99366.19;4340058;33;34084;-82
2021/01/06 03:53:35;;;;;;;20.73;9.35;;;;;;;4.92;71.95;99367.13;4343742;32;32663;-82
2021/01/06 03:56:10;;;;;;;23.87;10.27;;;;;;;5.16;71.18;99360.34;4334071;32;35243;-82
2021/01/06 03:58:45;;;;;;;21.80;10.30;;;;;;;4.85;72.09;99353.34;4354713;32;33549;-83
2021/01/06 04:01:32;;;;;;;19.35;10.20;;;;;;;4.59;73.80;99363.66;4342845;32;33517;-82
2021/01/06 04:04:03;;;;;;;22.08;10.20;;;;;;;4.64;73.33;99353.94;4358244;32;34725;-82
2021/01/06 04:06:32;;;;;;;18.58;10.13;;;;;;;4.92;72.44;99355.81;4339418;32;34584;-83
2021/01/06 04:09:03;;;;;;;18.17;9.10;;;;;;;4.92;72.23;99346.19;4331021;32;31478;-82
2021/01/06 04:11:36;;;;;;;21.77;10.27;;;;;;;4.83;72.22;99354.28;4352506;32;34745;-82
2021/01/06 04:14:04;;;;;;;21.08;10.80;;;;;;;5.00;72.27;99353.84;4331072;32;34838;-82
2021/01/06 04:16:31;;;;;;;20.62;10.25;;;;;;;4.78;72.98;99364.88;4328550;32;32293;-83
2021/01/06 04:18:59;;;;;;;21.55;10.40;;;;;;;4.71;72.94;99362.50;4352648;32;32650;-82
2021/01/06 04:21:29;;;;;;;22.00;10.82;;;;;;;4.57;74.04;99362.84;4345346;32;35080;-82
2021/01/06 04:23:57;;;;;;;22.35;10.55;;;;;;;4.98;72.67;99350.38;4342334;33;33699;-82
2021/01/06 04:26:24;;;;;;;21.90;9.73;;;;;;;4.80;73.69;99349.16;4324811;32;34296;-83
2021/01/06 04:28:52;;;;;;;20.85;11.43;;;;;;;4.90;73.49;99341.91;4342937;33;33868;-82
2021/01/06 04:31:21;;;;;;;21.60;9.85;;;;;;;5.13;72.67;99352.59;4347977;32;33686;-83
2021/01/06 04:33:52;;;;;;;24.00;11.90;;;;;;;5.17;72.72;99341.09;4341353;32;33432;-83
2021/01/06 04:36:25;;;;;;;23.90;12.05;;;;;;;5.25;72.20;99333.91;4342251;32;33898;-81
2021/01/06 04:38:55;;;;;;;27.35;12.18;;;;;;;4.91;73.59;99335.78;4349601;32;34203;-81
2021/01/06 04:41:45;;;;;;;20.15;11.80;;;;;;;4.80;74.27;99372.69;4340344;32;34231;-81
2021/01/06 04:44:24;;;;;;;22.08;11.40;;;;;;;5.02;73.62;99363.34;4334157;32;34642;-81
2021/01/06 04:47:34;;;;;;;21.27;11.30;;;;;;;5.16;73.00;99368.19;4339482;33;34439;-82
2021/01/06 04:50:03;;;;;;;23.87;12.52;;;;;;;4.74;74.12;99368.47;4318810;33;34974;-82
2021/01/06 04:52:59;;;;;;;24.48;12.32;;;;;;;4.98;73.92;99356.47;4318228;33;35471;-82
2021/01/06 04:55:36;;;;;;;21.67;13.40;;;;;;;4.75;75.03;99378.06;4330198;33;33219;-82
2021/01/06 04:58:16;;;;;;;27.30;12.77;;;;;;;4.89;74.58;99372.44;4318067;33;34654;-82
2021/01/06 05:00:50;;;;;;;31.35;15.00;;;;;;;4.93;74.42;99368.81;4318098;33;34833;-82
2021/01/06 05:03:39;;;;;;;25.48;13.05;;;;;;;5.21;73.22;99371.53;4318370;33;35110;-82
2021/01/06 05:06:22;;;;;;;25.23;13.75;;;;;;;4.85;74.64;99374.28;4318329;33;33177;-82
2021/01/06 05:08:54;;;;;;;22.73;13.45;;;;;;;5.23;73.67;99380.22;4322529;33;33649;-83
2021/01/06 05:11:34;;;;;;;28.25;13.57;;;;;;;5.04;74.63;99371.16;4314070;33;35410;-82
2021/01/06 05:14:11;;;;;;;23.90;13.52;;;;;;;5.11;74.22;99375.31;4323568;33;34477;-82
2021/01/06 05:16:44;;;;;;;32.13;16.58;;;;;;;5.28;73.98;99360.00;4326458;33;34631;-82
2021/01/06 05:19:21;;;;;;;29.70;15.60;;;;;;;5.39;73.89;99383.22;4316824;33;33175;-82
2021/01/06 05:21:49;;;;;;;30.33;15.60;;;;;;;4.94;75.22;99385.38;4315364;33;32349;-82
2021/01/06 05:24:28;;;;;;;25.77;13.73;;;;;;;5.14;74.39;99393.56;4313423;33;34568;-82
2021/01/06 05:27:10;;;;;;;39.45;17.25;;;;;;;4.69;76.56;99399.13;4343978;32;34235;-82
2021/01/06 05:29:38;;;;;;;28.73;14.87;;;;;;;4.98;75.55;99400.94;4348582;32;31500;-82
2021/01/06 05:32:28;;;;;;;30.83;15.48;;;;;;;4.95;75.28;99401.06;4339520;32;33243;-83
2021/01/06 05:35:08;;;;;;;30.67;16.35;;;;;;;4.80;75.95;99412.78;4338615;32;34595;-83
2021/01/06 05:37:37;;;;;;;28.58;14.00;;;;;;;5.22;74.22;99402.06;4354200;32;35100;-82
2021/01/06 05:40:08;;;;;;;28.05;15.32;;;;;;;5.06;74.13;99395.53;4335475;32;33531;-83
2021/01/06 05:42:51;;;;;;;29.23;15.30;;;;;;;5.30;73.65;99394.81;4334719;32;33874;-82
2021/01/06 05:45:23;;;;;;;30.02;14.43;;;;;;;5.33;73.41;99393.88;4336003;32;33652;-82
2021/01/06 05:48:12;;;;;;;33.13;15.95;;;;;;;5.17;74.26;99392.59;4356664;32;33775;-82
2021/01/06 05:50:40;;;;;;;33.55;15.90;;;;;;;4.97;75.17;99408.84;4354944;32;34989;-82
2021/01/06 05:53:23;;;;;;;29.42;13.88;;;;;;;5.64;72.56;99406.94;4332927;32;34227;-82
2021/01/06 05:55:51;;;;;;;26.48;13.68;;;;;;;5.57;72.79;99392.31;4348227;32;34577;-82
2021/01/06 05:58:31;;;;;;;29.27;15.25;;;;;;;5.49;72.73;99391.66;4353770;32;33739;-82
2021/01/06 06:01:13;;;;;;;28.23;14.43;;;;;;;5.27;73.34;99374.00;4340630;32;33396;-83
2021/01/06 06:03:54;;;;;;;28.58;14.55;;;;;;;5.29;73.68;99366.94;4346774;32;34132;-83
2021/01/06 06:06:47;;;;;;;30.17;13.77;;;;;;;4.90;74.82;99373.31;4342374;32;33855;-82
2021/01/06 06:09:37;;;;;;;32.78;14.95;;;;;;;4.39;77.43;99368.56;4345529;32;33769;-82
2021/01/06 06:12:30;;;;;;;30.75;15.23;;;;;;;4.85;75.47;99361.22;4342598;32;33509;-82
2021/01/06 06:15:21;;;;;;;;;;;;;;;4.18;78.26;99365.59;4344892;32;125310;-82
2021/01/06 06:17:54;;;;;;;28.50;15.25;;;;;;;4.66;76.68;99369.59;4345181;32;33905;-82
2021/01/06 06:20:58;;;;;;;34.42;15.55;;;;;;;4.51;77.34;99392.63;4353328;32;36355;-82
2021/01/06 06:23:48;;;;;;;30.95;15.20;;;;;;;4.99;75.29;99367.81;4279337;33;33601;-82
2021/01/06 06:26:24;;;;;;;30.23;13.55;;;;;;;4.36;77.70;99378.16;4275038;33;32893;-82
2021/01/06 06:29:04;;;;;;;34.95;15.70;;;;;;;4.23;77.81;99387.25;4292081;33;33328;-83
2021/01/06 06:31:33;;;;;;;29.87;15.02;;;;;;;4.61;76.88;99369.72;4294097;33;33461;-83
2021/01/06 06:34:03;;;;;;;32.00;14.85;;;;;;;4.53;76.60;99379.50;4293684;33;33669;-83
2021/01/06 06:36:33;;;;;;;31.90;14.95;;;;;;;4.43;77.55;99383.25;4290764;33;33506;-84
2021/01/06 06:39:23;;;;;;;28.42;14.82;;;;;;;4.76;76.45;99379.78;4288605;33;35154;-84
2021/01/06 06:41:50;;;;;;;30.08;14.60;;;;;;;4.21;78.65;99375.09;4287185;33;35566;-83
2021/01/06 06:44:30;;;;;;;34.88;16.37;;;;;;;4.41;77.67;99374.59;4302313;33;33246;-84
2021/01/06 06:47:08;;;;;;;35.53;15.48;;;;;;;4.60;76.78;99370.59;4288583;33;33959;-83
2021/01/06 06:50:00;;;;;;;37.45;15.88;;;;;;;4.48;77.29;99381.38;4289213;33;34364;-83
2021/01/06 06:52:38;;;;;;;35.97;15.98;;;;;;;4.49;77.13;99372.62;4289609;33;33810;-83
2021/01/06 06:55:26;;;;;;;32.30;14.23;;;;;;;4.55;77.09;99369.84;4298865;33;33209;-83
2021/01/06 06:58:12;;;;;;;28.27;14.02;;;;;;;4.31;78.27;99374.81;4314921;32;32299;-84
2021/01/06 07:00:40;;;;;;;35.53;15.35;;;;;;;4.52;77.21;99372.56;4362996;32;34210;-84
2021/01/06 07:03:07;;;;;;;31.85;14.23;;;;;;;4.35;77.83;99371.22;4352949;32;33715;-83
2021/01/06 07:05:42;;;;;;;33.25;14.87;;;;;;;4.41;78.03;99377.19;4329424;32;34263;-84
2021/01/06 07:08:19;;;;;;;26.98;14.10;;;;;;;4.28;78.42;99377.53;4358204;32;34117;-85
2021/01/06 07:10:55;;;;;;;38.15;16.02;;;;;;;4.78;76.30;99374.47;4344720;32;34832;-84
2021/01/06 07:13:24;;;;;;;34.65;15.75;;;;;;;4.53;77.58;99382.13;4346247;32;34808;-84
2021/01/06 07:15:53;;;;;;;30.45;14.55;;;;;;;4.60;77.52;99383.66;4357615;32;33652;-84
2021/01/06 07:18:25;;;;;;;36.45;16.48;;;;;;;4.39;78.20;99389.47;4343218;32;34088;-84
2021/01/06 07:21:28;;;;;;;33.78;16.10;;;;;;;4.51;77.54;99391.75;4354060;32;34735;-84
2021/01/06 07:23:59;;;;;;;36.17;16.27;;;;;;;4.81;76.57;99377.88;4296075;33;35561;-84
2021/01/06 07:26:30;;;;;;;36.58;15.65;;;;;;;4.72;76.58;99383.34;4303894;33;33067;-84
2021/01/06 07:29:05;;;;;;;37.92;17.70;;;;;;;4.64;76.58;99382.69;4305567;33;33377;-84
2021/01/06 07:32:03;;;;;;;38.47;16.92;;;;;;;4.37;77.89;99379.91;4296019;33;33425;-84
2021/01/06 07:34:41;;;;;;;43.40;17.17;;;;;;;4.65;77.30;99381.78;4311967;33;36972;-84
2021/01/06 07:37:24;;;;;;;38.17;18.50;;;;;;;4.63;77.51;99383.59;4320279;33;34561;-84
2021/01/06 07:40:00;;;;;;;39.50;16.57;;;;;;;4.61;77.18;99369.72;4293018;33;33014;-84
2021/01/06 07:42:33;;;;;;;37.08;17.12;;;;;;;4.67;76.96;99380.00;4314806;33;33669;-85
2021/01/06 07:45:16;;;;;;;33.70;16.83;;;;;;;4.75;76.79;99385.91;4303634;33;37942;-84
2021/01/06 07:47:49;;;;;;;35.25;17.73;;;;;;;4.62;77.13;99385.34;4304298;33;33283;-84
2021/01/06 07:50:22;;;;;;;37.72;17.70;;;;;;;4.55;77.59;99381.16;4306341;33;33786;-85
2021/01/06 07:52:59;;;;;;;38.35;15.35;;;;;;;4.60;77.30;99387.16;4294151;33;34355;-89
2021/01/06 07:55:56;;;;;;;42.20;18.50;;;;;;;4.41;78.42;99385.91;4290009;33;32672;-88
2021/01/06 07:58:34;;;;;;;40.15;16.67;;;;;;;5.11;75.90;99383.16;4258413;33;32490;-84
2021/01/06 08:01:32;;;;;;;38.30;17.65;;;;;;;5.15;75.58;99384.78;4269262;33;35571;-83
2021/01/06 08:04:10;;;;;;;38.72;18.27;;;;;;;4.85;76.67;99384.75;4280456;33;33475;-85
2021/01/06 08:06:39;;;;;;;40.70;19.20;;;;;;;5.14;75.99;99388.31;4259543;33;35169;-88
2021/01/06 08:09:07;;;;;;;46.05;19.80;;;;;;;5.28;75.11;99391.41;4270387;33;33580;-84
2021/01/06 08:11:46;;;;;;;46.47;21.12;;;;;;;4.99;76.56;99394.00;4259549;33;33270;-83
2021/01/06 08:14:20;;;;;;;43.03;20.30;;;;;;;5.07;76.18;99397.22;4285882;33;33174;-84
2021/01/06 08:16:52;;;;;;;39.70;18.58;;;;;;;5.31;74.85;99409.62;4270981;33;35689;-84
2021/01/06 08:19:24;;;;;;;37.63;17.45;;;;;;;5.25;74.93;99406.34;4282924;33;34798;-83
2021/01/06 08:21:58;;;;;;;44.15;19.58;;;;;;;5.59;73.94;99400.97;4274618;33;34303;-84
2021/01/06 08:24:37;;;;;;;44.03;20.17;;;;;;;5.40;74.45;99396.28;4263117;33;32339;-84
2021/01/06 08:27:13;;;;;;;39.10;18.50;;;;;;;5.27;74.96;99397.56;4274269;33;34637;-84
2021/01/06 08:29:40;;;;;;;35.95;17.27;;;;;;;5.37;75.25;99406.84;4279029;33;33334;-84
2021/01/06 08:32:10;;;;;;;43.50;24.27;;;;;;;5.33;75.33;99414.84;4263229;33;34151;-84
2021/01/06 08:34:42;;;;;;;41.53;20.10;;;;;;;5.46;75.08;99418.81;4286938;32;33590;-84
2021/01/06 08:37:12;;;;;;;43.78;21.12;;;;;;;5.61;73.97;99420.13;4335965;32;34242;-84
2021/01/06 08:39:53;;;;;;;44.03;21.73;;;;;;;5.58;73.96;99414.97;4340396;33;33646;-84
2021/01/06 08:42:26;;;;;;;41.60;21.10;;;;;;;5.64;73.98;99414.78;4333373;33;33883;-84
2021/01/06 08:44:54;;;;;;;46.40;21.90;;;;;;;5.58;74.09;99425.44;4346610;32;33565;-84
2021/01/06 08:47:38;;;;;;;47.55;22.90;;;;;;;5.70;73.84;99419.88;4355292;32;34773;-84
2021/01/06 08:50:24;;;;;;;42.55;20.08;;;;;;;5.93;72.57;99410.44;4357893;32;33710;-84
2021/01/06 08:52:54;;;;;;;38.15;18.98;;;;;;;5.61;73.32;99414.91;4346753;32;34151;-84
2021/01/06 08:55:34;;;;;;;42.83;20.55;;;;;;;5.72;73.57;99404.94;4336498;32;33693;-84
2021/01/06 08:58:04;;;;;;;40.60;19.27;;;;;;;5.63;74.27;99402.59;4337838;32;33790;-85
2021/01/06 09:00:43;;;;;;;40.95;20.30;;;;;;;5.89;73.13;99407.91;4343750;33;33408;-84
2021/01/06 09:03:27;;;;;;;38.10;19.48;;;;;;;5.98;72.53;99413.78;4346870;32;32893;-84
2021/01/06 09:06:00;;;;;;;46.50;21.62;;;;;;;6.27;71.09;99400.63;4348063;32;34380;-84
2021/01/06 09:08:36;;;;;;;43.13;19.70;;;;;;;6.08;72.00;99397.75;4341853;33;34713;-84
2021/01/06 09:11:26;;;;;;;46.97;22.33;;;;;;;5.95;72.36;99390.31;4347452;32;35658;-84
2021/01/06 09:14:17;;;;;;;40.50;19.35;;;;;;;5.79;73.86;99403.88;4328711;33;33599;-84
2021/01/06 09:16:49;;;;;;;39.30;19.90;;;;;;;5.67;73.71;99401.59;4340689;32;33407;-83
2021/01/06 09:19:26;;;;;;;38.53;19.85;;;;;;;5.93;73.14;99410.44;4337401;32;34263;-89
2021/01/06 09:21:54;;;;;;;38.55;20.88;;;;;;;5.56;74.55;99406.31;4338179;32;34466;-90
2021/01/06 09:24:32;;;;;;;46.95;21.30;;;;;;;5.93;73.32;99402.59;4360557;32;34137;-89
2021/01/06 09:27:07;;;;;;;37.20;19.60;;;;;;;6.01;72.43;99408.47;4327817;32;33672;-85
2021/01/06 09:29:37;;;;;;;48.42;22.27;;;;;;;6.24;71.43;99395.47;4354695;32;33227;-84
2021/01/06 09:32:10;;;;;;;46.03;21.00;;;;;;;5.90;72.71;99393.91;4336872;32;32908;-85
2021/01/06 09:34:43;;;;;;;48.80;22.48;;;;;;;5.68;74.03;99392.84;4362674;32;33301;-84
2021/01/06 09:37:23;;;;;;;40.40;20.40;;;;;;;5.92;73.48;99395.66;4346429;32;34065;-84
2021/01/06 09:39:54;;;;;;;42.62;20.98;;;;;;;5.73;73.86;99401.41;4345401;32;33690;-84
2021/01/06 09:42:25;;;;;;;48.00;24.00;;;;;;;5.96;73.06;99395.50;4341619;32;35557;-84
2021/01/06 09:44:57;;;;;;;52.03;25.12;;;;;;;5.82;74.50;99393.28;4337678;32;33968;-84
2021/01/06 09:47:39;;;;;;;44.78;21.80;;;;;;;6.20;73.02;99386.00;4346965;32;34262;-84
2021/01/06 09:50:23;;;;;;;46.37;23.60;;;;;;;6.60;71.03;99397.81;4344423;32;35479;-84
2021/01/06 09:52:52;;;;;;;41.33;20.77;;;;;;;6.43;71.56;99390.50;4340988;32;33563;-84
2021/01/06 09:55:21;;;;;;;41.70;20.67;;;;;;;6.46;71.69;99390.41;4331987;32;33969;-84
2021/01/06 09:57:59;;;;;;;42.70;21.27;;;;;;;6.62;71.29;99388.09;4345601;32;33294;-84
2021/01/06 10:00:41;;;;;;;41.22;21.62;;;;;;;6.62;71.29;99375.84;4335453;32;34325;-84
2021/01/06 10:03:09;;;;;;;42.28;21.80;;;;;;;6.82;70.83;99377.75;4350094;32;34836;-84
2021/01/06 10:05:55;;;;;;;43.03;21.55;;;;;;;6.85;71.12;99377.66;4345109;32;33446;-85
2021/01/06 10:08:22;;;;;;;40.38;20.20;;;;;;;6.82;70.95;99377.75;4351331;32;34210;-84
2021/01/06 10:10:51;;;;;;;41.78;19.77;;;;;;;6.65;71.38;99381.00;4352389;32;33878;-84
2021/01/06 10:14:00;;;;;;;39.15;19.15;;;;;;;6.21;73.33;99374.59;4346506;32;32928;-83
2021/01/06 10:16:36;;;;;;;39.38;18.70;;;;;;;6.04;73.33;99387.41;4345800;32;33803;-84
2021/01/06 10:19:08;;;;;;;44.08;22.20;;;;;;;6.41;73.32;99376.59;4334148;32;34640;-84
2021/01/06 10:22:17;;;;;;;41.72;21.15;;;;;;;6.68;72.73;99370.38;4346527;32;33859;-84
2021/01/06 10:25:02;;;;;;;38.55;20.23;;;;;;;6.57;71.90;99369.03;4345246;32;34656;-88
2021/01/06 10:27:36;;;;;;;39.03;21.23;;;;;;;6.54;72.79;99367.38;4337051;33;34640;-88
2021/01/06 10:30:25;;;;;;;44.33;22.70;;;;;;;6.59;72.71;99356.72;4340755;32;35420;-88
2021/01/06 10:37:25;;;;;;;40.50;21.40;;;;;;;6.37;73.42;99361.84;4245560;33;34221;-85
2021/01/06 10:40:16;;;;;;;45.60;23.85;;;;;;;6.59;72.19;99361.97;4275993;33;34071;-84
2021/01/06 10:43:44;;;;;;;45.05;22.70;;;;;;;6.45;73.08;99356.34;4218859;33;33246;-85
2021/01/06 10:46:33;;;;;;;42.17;23.33;;;;;;;6.69;72.49;99350.25;4220355;33;33383;-85
2021/01/06 10:49:18;;;;;;;45.22;22.30;;;;;;;6.01;75.20;99348.19;4223783;33;34360;-84
2021/01/06 10:52:03;;;;;;;49.05;24.45;;;;;;;7.21;71.15;99343.09;4481202;31;305299;-84
2021/01/06 10:54:39;;;;;;;44.58;23.90;;;;;;;7.21;71.15;99343.09;4475814;31;34571;-84
2021/01/06 10:57:46;;;;;;;47.92;25.30;;;;;;;6.96;71.67;99342.31;4458096;32;34195;-85
2021/01/06 11:00:21;;;;;;;53.22;28.45;;;;;;;7.13;71.81;99339.94;4473377;32;35084;-84
2021/01/06 11:03:27;;;;;;;87.25;44.75;;;;;;;7.24;71.28;99345.63;4460223;32;32931;-84
2021/01/06 11:05:54;;;;;;;39.63;23.35;;;;;;;6.43;73.77;99345.06;4468181;32;34077;-84
2021/01/06 11:08:55;;;;;;;43.03;24.33;;;;;;;7.09;71.09;99338.31;4478629;32;33282;-84
2021/01/06 11:11:35;;;;;;;45.03;23.75;;;;;;;6.58;73.26;99329.63;4452125;31;35238;-84
2021/01/06 11:14:16;;;;;;;47.72;26.02;;;;;;;7.00;72.11;99333.41;4460871;32;33969;-85
2021/01/06 11:16:47;;;;;;;46.07;27.57;;;;;;;7.03;72.02;99330.69;4473868;32;35063;-84
2021/01/06 11:19:47;;;;;;;43.42;24.77;;;;;;;7.23;71.38;99340.44;4474119;32;33595;-84
2021/01/06 11:22:43;;;;;;;40.80;23.60;;;;;;;7.12;71.27;99333.81;4466522;32;34749;-83
2021/01/06 11:25:39;;;;;;;61.78;34.45;;;;;;;7.35;70.38;99338.19;4449332;32;33194;-85
2021/01/06 11:28:33;;;;;;;90.25;52.30;;;;;;;7.03;71.64;99343.81;4475461;32;33208;-84
2021/01/06 11:31:23;;;;;;;45.47;25.70;;;;;;;7.21;71.73;99337.84;4471346;32;32896;-84
2021/01/06 11:34:19;;;;;;;54.53;28.62;;;;;;;7.51;70.03;99343.75;4465325;32;34704;-85
2021/01/06 11:36:51;;;;;;;118.35;63.90;;;;;;;7.80;69.80;99339.97;4447732;32;34142;-84
2021/01/06 11:39:28;;;;;;;40.83;24.30;;;;;;;7.60;71.00;99334.66;4457431;32;34071;-85
2021/01/06 11:42:04;;;;;;;45.88;24.42;;;;;;;7.67;69.99;99331.69;4473915;31;35452;-84
2021/01/06 11:44:35;;;;;;;44.75;23.05;;;;;;;7.60;70.05;99332.03;4470392;32;33687;-85
2021/01/06 11:47:27;;;;;;;41.45;23.05;;;;;;;7.65;70.58;99337.94;4477406;31;33569;-84
2021/01/06 11:50:20;;;;;;;41.33;24.60;;;;;;;7.95;69.04;99330.59;4462205;32;33873;-84
2021/01/06 11:52:48;;;;;;;40.70;24.25;;;;;;;8.08;68.48;99325.72;4464050;32;34425;-84
2021/01/06 11:55:16;;;;;;;43.13;24.12;;;;;;;8.12;68.55;99322.91;4459986;32;35054;-84
2021/01/06 11:57:46;;;;;;;42.17;23.05;;;;;;;8.21;68.03;99327.78;4457905;32;33794;-84
2021/01/06 12:00:16;;;;;;;43.92;26.45;;;;;;;8.21;68.01;99329.53;4458518;32;33810;-84
2021/01/06 12:03:12;;;;;;;42.17;24.12;;;;;;;8.29;68.06;99330.06;4470761;32;33794;-82
2021/01/06 12:05:59;;;;;;;40.08;23.52;;;;;;;8.30;67.55;99330.91;4453981;32;34724;-81
2021/01/06 12:08:45;;;;;;;35.97;22.33;;;;;;;8.45;66.66;99328.56;4448582;32;34872;-81
2021/01/06 12:11:35;;;;;;;37.58;21.62;;;;;;;8.46;66.21;99327.63;4460482;32;32322;-82
2021/01/06 12:14:11;;;;;;;43.60;24.48;;;;;;;8.13;67.60;99326.38;4451422;32;31427;-83